Time;durP1;ratioP1;P1;durP2;ratioP2;P2;SDS_P1;SDS_P2;PMS_P1;PMS_P2;Temp;Humidity;BMP_temperature;BMP_pressure;BME280_temperature;BME280_humidity;BME280_pressure;Samples;Min_cycle;Max_cycle;Signal;HPM_P1;HPM_P2
2022/03/25 00:00:31;;;;;;;;;;;7.80;99.90;;;;;;5031980;28;20031;-78
2022/03/25 00:02:58;;;;;;;;;;;7.80;99.90;;;;;;5031832;28;20285;-79
2022/03/25 00:05:25;;;;;;;;;;;7.70;99.90;;;;;;5031911;28;19940;-79
2022/03/25 00:07:51;;;;;;;;;;;7.60;99.90;;;;;;5032032;28;19925;-80
2022/03/25 00:10:20;;;;;;;;;;;7.60;99.90;;;;;;5032005;28;19925;-79
2022/03/25 00:12:47;;;;;;;;;;;7.50;99.90;;;;;;5031776;28;19937;-79
2022/03/25 00:15:13;;;;;;;;;;;7.50;99.90;;;;;;5030837;28;19933;-79
2022/03/25 00:17:40;;;;;;;;;;;7.40;99.90;;;;;;5031329;28;19929;-77
2022/03/25 00:20:08;;;;;;;;;;;7.20;99.90;;;;;;5030889;28;19935;-76
2022/03/25 00:22:35;;;;;;;;;;;7.10;99.90;;;;;;5031261;28;19925;-77
2022/03/25 00:25:04;;;;;;;;;;;7.00;99.90;;;;;;5030708;28;19936;-78
2022/03/25 00:27:33;;;;;;;;;;;6.90;99.90;;;;;;5031040;28;19925;-78
2022/03/25 00:29:59;;;;;;;;;;;6.90;99.90;;;;;;5030530;28;19929;-77
2022/03/25 00:32:26;;;;;;;;;;;6.90;99.90;;;;;;5030899;28;19925;-79
2022/03/25 00:34:53;;;;;;;;;;;6.70;99.90;;;;;;5030485;28;19925;-78
2022/03/25 00:37:20;;;;;;;;;;;6.70;99.90;;;;;;5029846;28;19925;-77
2022/03/25 00:39:47;;;;;;;;;;;6.50;99.90;;;;;;5030299;28;19929;-76
2022/03/25 00:42:16;;;;;;;;;;;6.30;99.90;;;;;;5030880;28;19934;-76
2022/03/25 00:44:44;;;;;;;;;;;6.00;99.90;;;;;;5030414;28;19933;-76
2022/03/25 00:47:11;;;;;;;;;;;5.80;99.90;;;;;;5030826;28;19925;-78
2022/03/25 00:49:39;;;;;;;;;;;5.70;99.90;;;;;;5030268;28;19925;-76
2022/03/25 00:52:06;;;;;;;;;;;5.70;99.90;;;;;;5030317;28;19925;-76
2022/03/25 00:54:33;;;;;;;;;;;5.60;99.90;;;;;;5029877;28;19925;-77
2022/03/25 00:57:00;;;;;;;;;;;5.60;99.90;;;;;;5030526;28;19925;-76
2022/03/25 00:59:27;;;;;;;;;;;5.60;99.90;;;;;;5030121;28;19929;-77
2022/03/25 01:01:56;;;;;;;;;;;5.50;99.90;;;;;;5029793;28;19925;-77
2022/03/25 01:04:22;;;;;;;;;;;5.50;99.90;;;;;;5029807;28;19929;-76
2022/03/25 01:06:51;;;;;;;;;;;5.50;99.90;;;;;;5030239;28;19931;-78
2022/03/25 01:09:17;;;;;;;;;;;5.50;99.90;;;;;;5030285;28;19929;-77
2022/03/25 01:11:44;;;;;;;;;;;5.50;99.90;;;;;;5030112;28;19932;-79
2022/03/25 01:14:13;;;;;;;;;;;5.50;99.90;;;;;;5029542;28;19925;-77
2022/03/25 01:16:40;;;;;;;;;;;5.50;99.90;;;;;;5029720;28;20027;-77
2022/03/25 01:19:08;;;;;;;;;;;5.50;99.90;;;;;;5029875;28;19925;-78
2022/03/25 01:21:35;;;;;;;;;;;5.30;99.90;;;;;;5029835;28;19929;-77
2022/03/25 01:24:02;;;;;;;;;;;5.30;99.90;;;;;;5030109;28;19933;-77
2022/03/25 01:26:29;;;;;;;;;;;5.20;99.90;;;;;;5029883;28;20008;-77
2022/03/25 01:28:55;;;;;;;;;;;5.10;99.90;;;;;;5030092;28;19925;-76
2022/03/25 01:31:22;;;;;;;;;;;5.10;99.90;;;;;;5030050;28;19925;-75
2022/03/25 01:33:49;;;;;;;;;;;5.10;99.90;;;;;;5029294;28;19925;-77
2022/03/25 01:36:19;;;;;;;;;;;5.10;99.90;;;;;;5030181;28;20412;-77
2022/03/25 01:38:45;;;;;;;;;;;5.00;99.90;;;;;;5029507;28;19925;-75
2022/03/25 01:41:15;;;;;;;;;;;5.00;99.90;;;;;;5029779;28;19929;-78
2022/03/25 01:43:43;;;;;;;;;;;4.90;99.90;;;;;;5029461;28;19940;-76
2022/03/25 01:46:10;;;;;;;;;;;4.90;99.90;;;;;;5029899;28;19925;-77
2022/03/25 01:48:39;;;;;;;;;;;4.90;99.90;;;;;;5029579;28;19932;-76
2022/03/25 01:51:06;;;;;;;;;;;4.80;99.90;;;;;;5029460;28;19929;-77
2022/03/25 01:53:34;;;;;;;;;;;4.80;99.90;;;;;;5029053;28;20320;-75
2022/03/25 01:56:02;;;;;;;;;;;4.80;99.90;;;;;;5028613;28;19932;-78
2022/03/25 01:58:30;;;;;;;;;;;4.80;99.90;;;;;;5029794;28;19925;-78
2022/03/25 02:00:57;;;;;;;;;;;4.80;99.90;;;;;;5029344;28;19932;-78
2022/03/25 02:03:24;;;;;;;;;;;4.80;99.90;;;;;;5029382;28;19925;-77
2022/03/25 02:05:51;;;;;;;;;;;4.70;99.90;;;;;;5029237;28;19929;-78
2022/03/25 02:08:20;;;;;;;;;;;4.70;99.90;;;;;;5028894;28;20385;-76
2022/03/25 02:10:50;;;;;;;;;;;4.70;99.90;;;;;;5029445;28;19929;-78
2022/03/25 02:13:20;;;;;;;;;;;4.60;99.90;;;;;;5029460;28;19975;-76
2022/03/25 02:15:52;;;;;;;;;;;4.50;99.90;;;;;;5029103;28;19952;-75
2022/03/25 02:18:19;;;;;;;;;;;4.50;99.90;;;;;;5029374;28;19925;-78
2022/03/25 02:20:46;;;;;;;;;;;4.50;99.90;;;;;;5028953;28;20022;-76
2022/03/25 02:23:17;;;;;;;;;;;4.50;99.90;;;;;;5029222;28;19925;-78
2022/03/25 02:25:44;;;;;;;;;;;4.50;99.90;;;;;;5029122;28;20020;-77
2022/03/25 02:28:13;;;;;;;;;;;4.50;99.90;;;;;;5029195;28;19925;-75
2022/03/25 02:30:43;;;;;;;;;;;4.40;99.90;;;;;;5028790;28;19975;-79
2022/03/25 02:33:12;;;;;;;;;;;4.40;99.90;;;;;;5028027;28;19925;-77
2022/03/25 02:35:40;;;;;;;;;;;4.40;99.90;;;;;;5009707;28;19929;-78
2022/03/25 02:38:07;;;;;;;;;;;4.50;99.90;;;;;;5009463;28;19929;-77
2022/03/25 02:40:35;;;;;;;;;;;4.40;99.90;;;;;;5009039;28;19932;-75
2022/03/25 02:43:02;;;;;;;;;;;4.40;99.90;;;;;;5009188;28;20500;-78
2022/03/25 02:45:29;;;;;;;;;;;4.40;99.90;;;;;;5009593;28;20037;-76
2022/03/25 02:47:56;;;;;;;;;;;4.40;99.90;;;;;;5009292;28;20393;-76
2022/03/25 02:50:25;;;;;;;;;;;4.40;99.90;;;;;;5009656;28;19933;-78
2022/03/25 02:52:51;;;;;;;;;;;4.40;99.90;;;;;;5009466;28;19925;-78
2022/03/25 02:55:18;;;;;;;;;;;4.30;99.90;;;;;;5008226;28;19936;-77
2022/03/25 02:57:46;;;;;;;;;;;4.30;99.90;;;;;;5009031;28;19926;-78
2022/03/25 03:00:13;;;;;;;;;;;4.30;99.90;;;;;;5008248;28;20432;-78
2022/03/25 03:02:40;;;;;;;;;;;4.20;99.90;;;;;;5011315;28;19932;-76
2022/03/25 03:05:07;;;;;;;;;;;4.20;99.90;;;;;;5012584;28;19933;-77
2022/03/25 03:07:35;;;;;;;;;;;4.10;99.90;;;;;;5012629;28;19926;-76
2022/03/25 03:10:03;;;;;;;;;;;4.10;99.90;;;;;;5016619;28;19925;-76
2022/03/25 03:12:30;;;;;;;;;;;4.00;99.90;;;;;;5024193;28;19925;-76
2022/03/25 03:14:58;;;;;;;;;;;3.90;99.90;;;;;;5031819;28;19925;-76
2022/03/25 03:17:25;;;;;;;;;;;3.80;99.90;;;;;;5032049;28;20289;-77
2022/03/25 03:19:51;;;;;;;;;;;3.80;99.90;;;;;;5032020;28;19925;-76
2022/03/25 03:22:18;;;;;;;;;;;3.70;99.90;;;;;;5032550;28;19925;-77
2022/03/25 03:24:45;;;;;;;;;;;3.70;99.90;;;;;;5031765;28;19925;-77
2022/03/25 03:27:12;;;;;;;;;;;3.70;99.90;;;;;;5031872;28;19971;-78
2022/03/25 03:29:39;;;;;;;;;;;3.70;99.90;;;;;;5031867;28;19940;-77
2022/03/25 03:32:08;;;;;;;;;;;3.60;99.90;;;;;;5031818;28;19932;-77
2022/03/25 03:34:36;;;;;;;;;;;3.60;99.90;;;;;;5048285;28;19926;-77
2022/03/25 03:37:03;;;;;;;;;;;3.60;99.90;;;;;;5032092;28;19925;-76
2022/03/25 03:39:29;;;;;;;;;;;3.50;99.90;;;;;;5031577;28;19932;-76
2022/03/25 03:41:56;;;;;;;;;;;3.50;99.90;;;;;;5031848;28;19936;-77
2022/03/25 03:44:23;;;;;;;;;;;3.40;99.90;;;;;;5031912;28;19925;-75
2022/03/25 03:46:50;;;;;;;;;;;3.50;99.90;;;;;;5031961;28;19968;-78
2022/03/25 03:49:19;;;;;;;;;;;3.40;99.90;;;;;;5031355;28;19925;-77
2022/03/25 03:51:46;;;;;;;;;;;3.40;99.90;;;;;;5031515;28;19925;-75
2022/03/25 03:54:13;;;;;;;;;;;3.30;99.90;;;;;;5031697;28;19968;-77
2022/03/25 03:56:40;;;;;;;;;;;3.30;99.90;;;;;;5031341;28;19936;-75
2022/03/25 03:59:07;;;;;;;;;;;3.30;99.90;;;;;;5031308;28;19933;-77
2022/03/25 04:01:34;;;;;;;;;;;3.30;99.90;;;;;;5031654;28;19957;-77
2022/03/25 04:04:00;;;;;;;;;;;3.30;99.90;;;;;;5031217;28;19929;-78
2022/03/25 04:06:29;;;;;;;;;;;3.30;99.90;;;;;;5031413;28;19929;-77
2022/03/25 04:08:57;;;;;;;;;;;3.20;99.90;;;;;;5031233;28;19925;-78
2022/03/25 04:11:24;;;;;;;;;;;3.20;99.90;;;;;;5031401;28;19929;-78
2022/03/25 04:13:51;;;;;;;;;;;3.20;99.90;;;;;;5031391;28;19929;-77
2022/03/25 04:16:18;;;;;;;;;;;3.10;99.90;;;;;;5031498;28;19925;-75
2022/03/25 04:18:45;;;;;;;;;;;3.10;99.90;;;;;;5031152;28;20019;-77
2022/03/25 04:21:12;;;;;;;;;;;3.10;99.90;;;;;;5031178;28;19935;-77
2022/03/25 04:23:40;;;;;;;;;;;3.10;99.90;;;;;;5031070;28;19925;-76
2022/03/25 04:26:07;;;;;;;;;;;3.00;99.90;;;;;;5031193;28;19929;-75
2022/03/25 04:28:34;;;;;;;;;;;3.10;99.90;;;;;;5031114;28;19929;-78
2022/03/25 04:31:05;;;;;;;;;;;3.00;99.90;;;;;;5030643;28;19925;-77
2022/03/25 04:33:34;;;;;;;;;;;3.00;99.90;;;;;;5030606;28;20376;-77
2022/03/25 04:36:01;;;;;;;;;;;2.90;99.90;;;;;;5031030;28;20388;-78
2022/03/25 04:38:27;;;;;;;;;;;2.90;99.90;;;;;;5030973;28;19925;-76
2022/03/25 04:40:56;;;;;;;;;;;2.80;99.90;;;;;;5030577;28;20006;-77
2022/03/25 04:43:23;;;;;;;;;;;2.90;99.90;;;;;;5031063;28;19925;-77
2022/03/25 04:45:50;;;;;;;;;;;2.80;99.90;;;;;;5030547;28;19925;-77
2022/03/25 04:48:16;;;;;;;;;;;2.80;99.90;;;;;;5030920;28;20008;-78
2022/03/25 04:50:44;;;;;;;;;;;2.80;99.90;;;;;;5030374;28;19925;-78
2022/03/25 04:53:11;;;;;;;;;;;2.70;99.90;;;;;;5031100;28;20015;-78
2022/03/25 04:55:37;;;;;;;;;;;2.70;99.90;;;;;;5030300;28;19932;-77
2022/03/25 04:58:06;;;;;;;;;;;2.70;99.90;;;;;;5030414;28;19932;-78
2022/03/25 05:00:32;;;;;;;;;;;2.60;99.90;;;;;;5030189;28;19932;-78
2022/03/25 05:02:59;;;;;;;;;;;2.60;99.90;;;;;;5030423;28;20269;-77
2022/03/25 05:05:26;;;;;;;;;;;2.50;99.90;;;;;;5030436;28;20015;-79
2022/03/25 05:07:53;;;;;;;;;;;2.50;99.90;;;;;;5030530;28;19963;-79
2022/03/25 05:10:20;;;;;;;;;;;2.40;99.90;;;;;;5032094;28;19925;-78
2022/03/25 05:12:46;;;;;;;;;;;2.40;99.90;;;;;;5033545;28;19929;-79
2022/03/25 05:15:15;;;;;;;;;;;2.40;99.90;;;;;;5030419;28;19933;-78
2022/03/25 05:17:46;;;;;;;;;;;2.40;99.90;;;;;;5030688;28;19929;-79
2022/03/25 05:20:13;;;;;;;;;;;2.40;99.90;;;;;;5030373;28;19925;-79
2022/03/25 05:22:40;;;;;;;;;;;2.30;99.90;;;;;;5030501;28;19932;-78
2022/03/25 05:25:08;;;;;;;;;;;2.30;99.90;;;;;;5029952;28;19925;-79
2022/03/25 05:27:43;;;;;;;;;;;2.30;99.90;;;;;;5030386;28;19925;-76
2022/03/25 05:30:10;;;;;;;;;;;2.30;99.90;;;;;;5030150;28;20028;-76
2022/03/25 05:32:39;;;;;;;;;;;2.20;99.90;;;;;;5030089;28;19936;-78
2022/03/25 05:35:07;;;;;;;;;;;2.20;99.90;;;;;;5029682;28;19925;-79
2022/03/25 05:37:34;;;;;;;;;;;2.20;99.90;;;;;;5030096;28;19925;-79
2022/03/25 05:40:01;;;;;;;;;;;2.20;99.90;;;;;;5029715;28;20327;-78
2022/03/25 05:42:27;;;;;;;;;;;2.20;99.90;;;;;;5031078;28;19932;-79
2022/03/25 05:44:54;;;;;;;;;;;2.20;99.90;;;;;;5030695;28;19925;-79
2022/03/25 05:47:21;;;;;;;;;;;2.10;99.90;;;;;;5031158;28;19925;-78
2022/03/25 05:49:49;;;;;;;;;;;2.10;99.90;;;;;;5030662;28;20423;-79
2022/03/25 05:52:16;;;;;;;;;;;2.20;99.90;;;;;;5031674;28;19964;-80
2022/03/25 05:54:43;;;;;;;;;;;2.20;99.90;;;;;;5031700;28;20036;-78
2022/03/25 05:57:10;;;;;;;;;;;2.20;99.90;;;;;;5032042;28;19925;-80
2022/03/25 05:59:37;;;;;;;;;;;2.30;99.90;;;;;;5030771;28;20406;-79
2022/03/25 06:02:04;;;;;;;;;;;2.30;99.90;;;;;;5025617;28;19932;-77
2022/03/25 06:04:30;;;;;;;;;;;2.40;99.90;;;;;;5024796;28;20258;-78
2022/03/25 06:06:59;;;;;;;;;;;2.40;99.90;;;;;;5020504;28;19975;-78
2022/03/25 06:09:26;;;;;;;;;;;2.40;99.90;;;;;;5015611;28;19933;-78
2022/03/25 06:11:52;;;;;;;;;;;2.40;99.90;;;;;;5018709;28;19936;-78
2022/03/25 06:14:19;;;;;;;;;;;2.50;99.90;;;;;;5010606;28;19932;-79
2022/03/25 06:16:46;;;;;;;;;;;2.50;99.90;;;;;;5010763;28;19972;-78
2022/03/25 06:22:44;;;;;;;;;;;2.60;99.90;;;;;;5029590;28;19920;-79
2022/03/25 06:25:11;;;;;;;;;;;2.70;99.90;;;;;;5040349;28;19929;-79
2022/03/25 06:27:45;;;;;;;;;;;2.70;99.90;;;;;;5030400;28;19925;-79
2022/03/25 06:30:12;;;;;;;;;;;2.80;99.90;;;;;;5040700;28;20028;-78
2022/03/25 06:32:39;;;;;;;;;;;2.80;99.90;;;;;;5050633;28;20362;-79
2022/03/25 06:35:07;;;;;;;;;;;2.90;99.90;;;;;;5051683;28;19987;-77
2022/03/25 06:37:33;;;;;;;;;;;3.00;99.90;;;;;;5041094;28;19956;-77
2022/03/25 06:40:02;;;;;;;;;;;3.10;99.90;;;;;;5043224;28;19925;-76
2022/03/25 06:42:29;;;;;;;;;;;3.10;99.90;;;;;;5053960;28;19924;-80
2022/03/25 06:44:56;;;;;;;;;;;3.20;99.90;;;;;;5053561;28;19978;-78
2022/03/25 06:47:22;;;;;;;;;;;3.30;99.90;;;;;;5054279;28;19936;-79
2022/03/25 06:49:49;;;;;;;;;;;3.40;99.90;;;;;;5054085;28;19930;-79
2022/03/25 06:52:16;;;;;;;;;;;3.50;99.90;;;;;;5055098;28;19925;-78
2022/03/25 06:54:43;;;;;;;;;;;3.60;99.90;;;;;;5029220;28;20345;-77
2022/03/25 06:57:13;;;;;;;;;;;3.70;99.90;;;;;;5022679;28;20446;-78
2022/03/25 06:59:41;;;;;;;;;;;3.80;99.90;;;;;;5019403;28;19926;-77
2022/03/25 07:02:09;;;;;;;;;;;3.90;99.90;;;;;;5013088;28;19932;-77
2022/03/25 07:04:36;;;;;;;;;;;3.90;99.90;;;;;;5012842;28;19925;-77
2022/03/25 07:07:04;;;;;;;;;;;4.10;99.90;;;;;;5012880;28;20369;-78
2022/03/25 07:09:31;;;;;;;;;;;4.20;99.90;;;;;;5012970;28;19933;-78
2022/03/25 07:11:58;;;;;;;;;;;4.30;99.90;;;;;;5020264;28;19930;-78
2022/03/25 07:14:26;;;;;;;;;;;4.40;99.90;;;;;;5013272;28;19925;-80
2022/03/25 07:16:53;;;;;;;;;;;4.50;99.90;;;;;;5014296;28;19925;-79
2022/03/25 07:19:20;;;;;;;;;;;4.60;99.90;;;;;;5014673;28;20356;-78
2022/03/25 07:21:47;;;;;;;;;;;4.70;99.90;;;;;;5013474;28;19933;-77
2022/03/25 07:24:13;;;;;;;;;;;4.90;99.90;;;;;;5012924;28;19997;-78
2022/03/25 07:26:40;;;;;;;;;;;5.00;99.90;;;;;;5013531;28;20293;-79
2022/03/25 07:29:07;;;;;;;;;;;5.20;99.90;;;;;;5022621;28;20400;-78
2022/03/25 07:31:35;;;;;;;;;;;5.30;99.90;;;;;;5031940;28;19964;-78
2022/03/25 07:34:02;;;;;;;;;;;5.50;99.90;;;;;;5031570;28;19925;-78
2022/03/25 07:36:29;;;;;;;;;;;5.70;99.90;;;;;;5034871;28;19933;-79
2022/03/25 07:38:55;;;;;;;;;;;6.10;99.90;;;;;;5032895;28;19925;-79
2022/03/25 07:41:22;;;;;;;;;;;6.30;99.90;;;;;;5018747;28;19929;-78
2022/03/25 07:43:49;;;;;;;;;;;6.50;99.90;;;;;;5024057;28;19929;-78
2022/03/25 07:46:17;;;;;;;;;;;6.70;99.90;;;;;;5028104;28;20031;-78
2022/03/25 07:48:45;;;;;;;;;;;6.80;99.90;;;;;;5021815;28;20128;-77
2022/03/25 07:51:12;;;;;;;;;;;7.00;99.90;;;;;;5024919;28;19925;-78
2022/03/25 07:53:39;;;;;;;;;;;7.20;99.90;;;;;;5018846;28;20013;-79
2022/03/25 07:56:06;;;;;;;;;;;7.30;99.90;;;;;;5024155;28;19925;-79
2022/03/25 07:58:33;;;;;;;;;;;7.40;99.90;;;;;;5033525;28;19925;-80
2022/03/25 08:01:00;;;;;;;;;;;7.50;99.90;;;;;;5033284;28;19960;-80
2022/03/25 08:03:27;;;;;;;;;;;7.70;99.90;;;;;;5033213;28;19926;-78
2022/03/25 08:05:55;;;;;;;;;;;7.80;99.90;;;;;;5028288;28;19926;-77
2022/03/25 08:08:22;;;;;;;;;;;7.90;99.90;;;;;;5024117;28;19925;-79
2022/03/25 08:10:54;;;;;;;;;;;8.00;99.90;;;;;;5028667;28;20294;-78
2022/03/25 08:13:21;;;;;;;;;;;8.10;99.90;;;;;;5029459;28;19932;-79
2022/03/25 08:15:48;;;;;;;;;;;8.20;99.90;;;;;;5025318;28;19933;-76
2022/03/25 08:18:16;;;;;;;;;;;8.40;99.90;;;;;;5012311;28;19925;-78
2022/03/25 08:20:44;;;;;;;;;;;8.50;99.90;;;;;;5011517;28;19933;-77
2022/03/25 08:23:13;;;;;;;;;;;8.60;99.90;;;;;;5011264;28;19925;-77
2022/03/25 08:28:25;;;;;;;;;;;8.80;99.90;;;;;;5011444;28;19930;-79
2022/03/25 08:30:52;;;;;;;;;;;8.90;99.90;;;;;;5011571;28;19933;-78
2022/03/25 08:33:19;;;;;;;;;;;9.00;99.90;;;;;;5030048;28;19925;-79
2022/03/25 08:35:47;;;;;;;;;;;9.10;99.90;;;;;;5032336;28;20023;-77
2022/03/25 08:38:15;;;;;;;;;;;9.20;99.90;;;;;;5038411;28;20286;-79
2022/03/25 08:40:42;;;;;;;;;;;9.30;99.90;;;;;;5027907;28;19925;-77
2022/03/25 08:43:09;;;;;;;;;;;9.40;99.90;;;;;;5045381;28;19936;-76
2022/03/25 08:45:35;;;;;;;;;;;9.60;99.90;;;;;;5040397;28;19929;-78
2022/03/25 08:48:03;;;;;;;;;;;9.70;99.90;;;;;;5049631;28;20293;-78
2022/03/25 08:50:29;;;;;;;;;;;9.80;99.90;;;;;;5065806;28;19924;-78
2022/03/25 08:52:56;;;;;;;;;;;9.90;99.90;;;;;;5050682;28;20300;-78
2022/03/25 08:55:25;;;;;;;;;;;9.90;99.90;;;;;;5050221;28;20465;-78
2022/03/25 08:57:51;;;;;;;;;;;10.10;99.90;;;;;;5035112;28;19929;-78
2022/03/25 09:00:19;;;;;;;;;;;10.30;99.90;;;;;;5031273;28;19925;-78
2022/03/25 09:02:46;;;;;;;;;;;10.50;99.90;;;;;;5031268;28;19957;-78
2022/03/25 09:05:13;;;;;;;;;;;10.60;99.90;;;;;;5048885;28;19928;-77
2022/03/25 09:07:41;;;;;;;;;;;10.70;99.90;;;;;;5049356;28;20015;-77
2022/03/25 09:10:09;;;;;;;;;;;10.90;99.90;;;;;;5032955;28;19932;-77
2022/03/25 09:12:37;;;;;;;;;;;11.00;99.90;;;;;;5025223;28;19929;-77
2022/03/25 09:15:06;;;;;;;;;;;11.20;99.90;;;;;;5025794;28;19925;-77
2022/03/25 09:17:33;;;;;;;;;;;11.30;99.90;;;;;;5030297;28;19929;-77
2022/03/25 09:19:59;;;;;;;;;;;11.40;99.90;;;;;;5029611;28;19948;-77
2022/03/25 09:22:26;;;;;;;;;;;11.60;99.90;;;;;;5030419;28;19925;-77
2022/03/25 09:24:53;;;;;;;;;;;11.80;99.90;;;;;;5029931;28;20306;-77
2022/03/25 09:27:20;;;;;;;;;;;11.90;99.90;;;;;;5030071;28;19929;-77
2022/03/25 09:29:48;;;;;;;;;;;12.00;99.90;;;;;;5029583;28;19929;-77
2022/03/25 09:32:15;;;;;;;;;;;12.20;99.90;;;;;;5036154;22;20356;-73
2022/03/25 09:37:26;;;;;;;;;;;12.50;99.90;;;;;;5019909;28;19930;-73
2022/03/25 09:39:52;;;;;;;;;;;12.60;99.90;;;;;;5011036;28;20020;-75
2022/03/25 09:42:20;;;;;;;;;;;12.70;99.90;;;;;;5023179;28;19926;-75
2022/03/25 09:44:49;;;;;;;;;;;12.80;99.90;;;;;;5006172;28;19933;-77
2022/03/25 09:47:17;;;;;;;;;;;13.00;99.90;;;;;;4991445;28;20378;-76
2022/03/25 09:49:44;;;;;;;;;;;13.10;99.90;;;;;;5006190;28;19929;-76
2022/03/25 09:52:11;;;;;;;;;;;13.30;99.90;;;;;;5020991;28;19984;-73
2022/03/25 09:54:38;;;;;;;;;;;13.50;99.90;;;;;;5023038;28;19926;-73
2022/03/25 09:57:05;;;;;;;;;;;13.60;99.90;;;;;;5024210;28;19930;-76
2022/03/25 09:59:32;;;;;;;;;;;13.60;99.90;;;;;;5023668;28;19929;-76
2022/03/25 10:02:00;;;;;;;;;;;13.80;99.90;;;;;;5023074;28;20025;-75
2022/03/25 10:04:43;;;;;;;;;;;13.90;99.90;;;;;;4989884;28;20103;-75
2022/03/25 10:07:17;;;;;;;;;;;14.00;99.90;;;;;;5023529;28;20647;-76
2022/03/25 10:09:44;;;;;;;;;;;14.10;99.90;;;;;;5024387;28;19933;-75
2022/03/25 10:12:23;;;;;;;;;;;14.30;99.90;;;;;;5010795;28;20353;-75
2022/03/25 10:14:51;;;;;;;;;;;14.40;99.90;;;;;;5014158;28;19971;-76
2022/03/25 10:17:20;;;;;;;;;;;14.60;99.90;;;;;;5030562;28;19929;-76
2022/03/25 10:19:47;;;;;;;;;;;14.80;99.90;;;;;;5030783;28;20392;-73
2022/03/25 10:22:15;;;;;;;;;;;15.10;99.90;;;;;;5025702;28;20385;-73
2022/03/25 10:24:44;;;;;;;;;;;15.30;99.90;;;;;;5019847;28;20381;-76
2022/03/25 10:27:11;;;;;;;;;;;15.40;99.90;;;;;;5000844;28;19926;-76
2022/03/25 10:29:38;;;;;;;;;;;15.60;99.90;;;;;;5006816;28;19977;-73
2022/03/25 10:32:05;;;;;;;;;;;15.70;99.90;;;;;;5007107;28;19926;-73
2022/03/25 10:34:34;;;;;;;;;;;15.90;99.90;;;;;;4974713;28;19926;-73
2022/03/25 10:37:01;;;;;;;;;;;16.00;99.90;;;;;;5007319;28;20314;-73
2022/03/25 10:39:28;;;;;;;;;;;16.10;99.90;;;;;;4974142;28;20021;-74
2022/03/25 10:41:58;;;;;;;;;;;16.20;99.90;;;;;;5007423;28;20386;-73
2022/03/25 10:44:33;;;;;;;;;;;16.40;99.90;;;;;;5006579;28;19930;-74
2022/03/25 10:47:00;;;;;;;;;;;16.50;99.90;;;;;;5007029;28;19926;-75
2022/03/25 10:49:37;;;;;;;;;;;16.70;99.90;;;;;;5009419;28;19926;-74
2022/03/25 10:52:06;;;;;;;;;;;16.80;99.90;;;;;;5006779;28;19941;-74
2022/03/25 10:54:32;;;;;;;;;;;17.00;99.90;;;;;;5006665;28;19937;-74
2022/03/25 10:57:01;;;;;;;;;;;17.20;99.90;;;;;;5006454;28;20435;-74
2022/03/25 10:59:29;;;;;;;;;;;17.30;99.90;;;;;;4974082;28;19926;-74
2022/03/25 11:01:57;;;;;;;;;;;17.40;99.90;;;;;;5006720;28;19930;-77
2022/03/25 11:04:24;;;;;;;;;;;17.50;99.90;;;;;;5006283;28;19934;-74
2022/03/25 11:06:52;;;;;;;;;;;17.60;99.90;;;;;;5020992;28;19969;-76
2022/03/25 11:09:21;;;;;;;;;;;17.70;99.90;;;;;;4993073;28;19925;-77
2022/03/25 11:11:49;;;;;;;;;;;17.90;99.90;;;;;;5006519;28;19969;-76
2022/03/25 11:14:16;;;;;;;;;;;17.90;99.90;;;;;;5006083;28;19946;-75
2022/03/25 11:16:44;;;;;;;;;;;18.10;99.90;;;;;;5006411;28;19926;-76
2022/03/25 11:19:12;;;;;;;;;;;18.30;99.90;;;;;;5013570;28;20376;-77
2022/03/25 11:21:40;;;;;;;;;;;18.50;99.90;;;;;;5008322;28;19926;-77
2022/03/25 11:24:08;;;;;;;;;;;18.50;99.90;;;;;;5025667;28;20333;-76
2022/03/25 11:26:38;;;;;;;;;;;18.30;99.90;;;;;;5009198;28;19926;-76
2022/03/25 11:29:07;;;;;;;;;;;18.20;99.90;;;;;;5008516;28;19945;-76
2022/03/25 11:32:02;;;;;;;;;;;18.00;99.90;;;;;;4973190;28;19933;-76
2022/03/25 11:34:29;;;;;;;;;;;18.20;99.90;;;;;;4972886;28;19927;-76
2022/03/25 11:37:11;;;;;;;;;;;18.10;99.90;;;;;;4973390;28;20429;-77
2022/03/25 11:39:38;;;;;;;;;;;18.40;99.90;;;;;;4972774;28;19930;-76
2022/03/25 11:42:07;;;;;;;;;;;18.90;99.90;;;;;;4989654;28;19950;-76
2022/03/25 11:44:34;;;;;;;;;;;19.20;99.90;;;;;;4989121;28;20402;-77
2022/03/25 11:47:13;;;;;;;;;;;20.40;99.90;;;;;;4973077;28;19926;-77
2022/03/25 11:49:40;;;;;;;;;;;23.70;99.90;;;;;;4972904;28;19927;-78
2022/03/25 11:52:21;;;;;;;;;;;25.60;99.90;;;;;;4973008;28;20365;-77
2022/03/25 11:54:55;;;;;;;;;;;24.90;99.90;;;;;;4972460;28;19992;-77
2022/03/25 11:57:24;;;;;;;;;;;23.20;99.90;;;;;;4973174;28;20409;-76
2022/03/25 11:59:51;;;;;;;;;;;24.40;99.90;;;;;;4972631;28;19963;-75
2022/03/25 12:02:25;;;;;;;;;;;23.90;99.90;;;;;;4990859;28;20366;-77
2022/03/25 12:04:52;;;;;;;;;;;23.70;99.10;;;;;;4991959;28;19980;-77
2022/03/25 12:07:19;;;;;;;;;;;23.50;98.70;;;;;;4990728;28;19926;-76
2022/03/25 12:09:46;;;;;;;;;;;24.50;98.70;;;;;;5024772;28;19929;-76
2022/03/25 12:12:13;;;;;;;;;;;27.40;97.10;;;;;;5003520;28;20398;-76
2022/03/25 12:14:55;;;;;;;;;;;29.70;96.70;;;;;;5004117;28;19926;-76
2022/03/25 12:17:26;;;;;;;;;;;29.70;94.30;;;;;;5005594;28;19978;-77
2022/03/25 12:19:55;;;;;;;;;;;29.50;94.50;;;;;;5005078;28;19980;-74
2022/03/25 12:22:43;;;;;;;;;;;29.80;93.10;;;;;;5004938;28;19926;-74
2022/03/25 12:25:14;;;;;;;;;;;30.00;93.40;;;;;;5004977;28;19926;-75
2022/03/25 12:27:41;;;;;;;;;;;28.70;92.40;;;;;;5004956;28;19926;-76
2022/03/25 12:30:09;;;;;;;;;;;29.20;92.40;;;;;;5004705;28;19977;-76
2022/03/25 12:32:38;;;;;;;;;;;29.60;92.70;;;;;;5004741;28;19926;-75
2022/03/25 12:35:06;;;;;;;;;;;29.50;92.20;;;;;;5004581;28;19926;-75
2022/03/25 12:37:37;;;;;;;;;;;30.50;92.60;;;;;;5004774;28;20436;-76
2022/03/25 12:40:11;;;;;;;;;;;30.90;91.70;;;;;;5010381;28;19926;-76
2022/03/25 12:42:38;;;;;;;;;;;31.00;91.00;;;;;;5022119;28;19988;-75
2022/03/25 12:45:05;;;;;;;;;;;30.60;90.70;;;;;;5023950;28;19925;-76
2022/03/25 12:47:32;;;;;;;;;;;30.60;91.00;;;;;;4991732;28;20297;-76
2022/03/25 12:50:02;;;;;;;;;;;29.80;90.90;;;;;;5024161;28;19953;-75
2022/03/25 12:52:28;;;;;;;;;;;29.90;91.30;;;;;;5024220;28;19973;-76
2022/03/25 12:54:55;;;;;;;;;;;30.00;90.70;;;;;;5024018;28;20003;-76
2022/03/25 12:57:32;;;;;;;;;;;29.30;90.40;;;;;;5009533;28;19930;-76
2022/03/25 12:59:59;;;;;;;;;;;29.10;90.50;;;;;;5008943;28;19977;-76
2022/03/25 13:02:33;;;;;;;;;;;28.30;90.50;;;;;;5025299;28;20348;-75
2022/03/25 13:05:08;;;;;;;;;;;28.00;90.10;;;;;;5008467;28;20403;-76
2022/03/25 13:07:35;;;;;;;;;;;28.10;90.30;;;;;;5025511;28;19969;-76
2022/03/25 13:10:02;;;;;;;;;;;28.00;90.10;;;;;;5024922;28;19932;-76
2022/03/25 13:12:29;;;;;;;;;;;27.70;89.50;;;;;;5025838;28;19930;-75
2022/03/25 13:14:56;;;;;;;;;;;26.80;89.20;;;;;;5024881;28;20020;-75
2022/03/25 13:17:27;;;;;;;;;;;26.50;89.60;;;;;;5008406;28;19976;-76
2022/03/25 13:19:57;;;;;;;;;;;26.80;89.70;;;;;;5024264;28;20313;-76
2022/03/25 13:22:25;;;;;;;;;;;27.40;90.00;;;;;;5022836;28;19930;-75
2022/03/25 13:24:53;;;;;;;;;;;27.60;90.00;;;;;;5007007;28;19929;-75
2022/03/25 13:27:20;;;;;;;;;;;27.40;89.80;;;;;;5007265;28;19926;-76
2022/03/25 13:29:47;;;;;;;;;;;27.20;89.50;;;;;;5006799;28;19980;-76
2022/03/25 13:32:28;;;;;;;;;;;27.70;89.60;;;;;;5006019;28;20354;-76
2022/03/25 13:35:01;;;;;;;;;;;28.00;88.30;;;;;;5005714;28;20338;-76
2022/03/25 13:37:29;;;;;;;;;;;28.70;88.60;;;;;;4990430;28;19926;-77
2022/03/25 13:39:56;;;;;;;;;;;29.10;87.50;;;;;;5004364;28;19929;-76
2022/03/25 13:42:31;;;;;;;;;;;28.60;89.00;;;;;;5006168;28;19926;-77
2022/03/25 13:45:04;;;;;;;;;;;28.30;87.60;;;;;;5011649;28;19929;-76
2022/03/25 13:47:31;;;;;;;;;;;28.00;88.20;;;;;;5019986;28;19926;-77
2022/03/25 13:50:11;;;;;;;;;;;27.60;88.20;;;;;;4989869;28;20392;-76
2022/03/25 13:52:39;;;;;;;;;;;27.50;88.30;;;;;;5023610;28;19973;-79
2022/03/25 13:55:16;;;;;;;;;;;27.40;87.80;;;;;;5006701;28;19929;-76
2022/03/25 13:57:53;;;;;;;;;;;27.20;88.30;;;;;;5006627;28;20335;-77
2022/03/25 14:00:28;;;;;;;;;;;27.70;88.90;;;;;;5006565;28;19973;-76
2022/03/25 14:02:55;;;;;;;;;;;28.30;89.20;;;;;;5006996;28;19925;-77
2022/03/25 14:05:25;;;;;;;;;;;28.30;89.30;;;;;;5006615;28;19980;-76
2022/03/25 14:07:54;;;;;;;;;;;27.90;88.20;;;;;;5007025;28;19941;-77
2022/03/25 14:10:21;;;;;;;;;;;27.30;87.10;;;;;;5006351;28;20020;-76
2022/03/25 14:12:55;;;;;;;;;;;27.50;88.20;;;;;;4989862;28;19929;-81
2022/03/25 14:15:24;;;;;;;;;;;27.90;87.60;;;;;;5021872;28;19980;-77
2022/03/25 14:17:52;;;;;;;;;;;27.70;87.90;;;;;;5024128;28;19926;-75
2022/03/25 14:20:19;;;;;;;;;;;27.80;86.60;;;;;;5024601;28;19926;-76
2022/03/25 14:22:47;;;;;;;;;;;27.70;86.70;;;;;;5020119;28;19988;-76
2022/03/25 14:25:17;;;;;;;;;;;28.00;87.10;;;;;;5006053;28;20448;-76
2022/03/25 14:27:44;;;;;;;;;;;28.20;86.70;;;;;;5006422;28;20398;-76
2022/03/25 14:30:11;;;;;;;;;;;28.60;87.50;;;;;;5000713;28;20349;-80
2022/03/25 14:32:38;;;;;;;;;;;28.30;86.60;;;;;;5001219;28;19926;-77
2022/03/25 14:35:05;;;;;;;;;;;27.80;87.30;;;;;;5021398;28;19926;-76
2022/03/25 14:37:32;;;;;;;;;;;27.80;85.40;;;;;;4989873;28;19969;-77
2022/03/25 14:39:59;;;;;;;;;;;28.00;84.70;;;;;;5007817;28;19973;-78